Time;durP1;ratioP1;P1;durP2;ratioP2;P2;SDS_P1;SDS_P2;PMS_P1;PMS_P2;Temp;Humidity;BMP_temperature;BMP_pressure;BME280_temperature;BME280_humidity;BME280_pressure;Samples;Min_cycle;Max_cycle;Signal;HPM_P1;HPM_P2
2024/02/08 00:00:50;;;;;;;16.13;5.13;;;1.40;99.90;;;;;;4997632;28;20061;-79
2024/02/08 00:03:16;;;;;;;12.52;5.53;;;1.30;99.90;;;;;;4998310;28;20018;-79
2024/02/08 00:05:41;;;;;;;16.23;4.82;;;1.40;99.90;;;;;;4997682;28;20057;-79
2024/02/08 00:08:07;;;;;;;13.02;5.07;;;1.40;99.90;;;;;;4997971;28;20033;-79
2024/02/08 00:10:33;;;;;;;15.07;5.15;;;1.30;99.90;;;;;;4996976;28;20026;-79
2024/02/08 00:12:59;;;;;;;19.27;5.32;;;4.80;99.90;;;;;;4997615;28;20113;-79
2024/02/08 00:15:25;;;;;;;12.30;4.82;;;1.40;99.90;;;;;;4997229;28;20072;-79
2024/02/08 00:17:51;;;;;;;14.85;5.00;;;1.40;99.90;;;;;;4996781;28;20038;-79
2024/02/08 00:20:17;;;;;;;17.05;5.40;;;1.50;99.90;;;;;;4996276;28;20030;-79
2024/02/08 00:22:43;;;;;;;26.05;7.05;;;1.50;99.90;;;;;;4998502;28;20038;-79
2024/02/08 00:25:10;;;;;;;19.65;6.30;;;1.50;99.90;;;;;;4997410;28;20041;-79
2024/02/08 00:27:36;;;;;;;18.38;5.85;;;1.50;99.90;;;;;;4998642;28;20030;-80
2024/02/08 00:30:02;;;;;;;18.08;5.32;;;3.10;99.90;;;;;;4998401;28;20034;-80
2024/02/08 00:32:28;;;;;;;12.18;5.65;;;1.50;99.90;;;;;;4996979;28;20482;-79
2024/02/08 00:34:54;;;;;;;18.10;5.40;;;1.50;99.90;;;;;;4997265;28;20089;-79
2024/02/08 00:37:20;;;;;;;16.20;4.70;;;1.50;99.90;;;;;;4999146;28;20018;-79
2024/02/08 00:39:46;;;;;;;13.32;5.05;;;4.10;99.90;;;;;;4997822;28;20022;-79
2024/02/08 00:42:12;;;;;;;14.40;5.18;;;1.50;99.90;;;;;;4997754;28;20030;-80
2024/02/08 00:44:41;;;;;;;11.55;4.63;;;1.50;99.90;;;;;;4998299;28;20084;-79
2024/02/08 00:54:55;;;;;;;17.75;5.18;;;;;;;;;;5055821;23;20073;-79
2024/02/08 00:57:32;;;;;;;12.38;4.65;;;1.60;99.90;;;;;;5017624;28;20030;-79
2024/02/08 01:00:02;;;;;;;13.45;4.88;;;1.60;99.90;;;;;;5026482;28;20482;-80
2024/02/08 01:02:28;;;;;;;13.80;4.70;;;1.60;99.90;;;;;;5010827;28;20098;-80
2024/02/08 01:04:55;;;;;;;14.20;3.88;;;1.60;99.90;;;;;;5025949;28;20026;-80
2024/02/08 01:07:21;;;;;;;13.10;3.33;;;;;;;;;;5025763;28;20033;-81
2024/02/08 01:09:48;;;;;;;9.68;3.28;;;1.70;99.90;;;;;;5024428;28;20054;-80
2024/02/08 01:12:14;;;;;;;9.27;2.63;;;;;;;;;;5010070;28;20026;-80
2024/02/08 01:14:42;;;;;;;7.57;2.50;;;;;;;;;;5025762;28;20094;-81
2024/02/08 01:17:08;;;;;;;10.63;2.50;;;;;;;;;;5026526;28;20117;-80
2024/02/08 01:19:34;;;;;;;12.10;2.90;;;;;;;;;;5025958;28;20045;-80
2024/02/08 01:22:00;;;;;;;12.27;3.17;;;;;;;;;;5028099;28;20022;-81
2024/02/08 01:24:28;;;;;;;10.75;3.22;;;;;;;;;;5026694;28;20128;-81
2024/02/08 01:26:56;;;;;;;11.50;2.95;;;;;;;;;;5026515;28;20026;-81
2024/02/08 01:29:24;;;;;;;9.48;2.97;;;;;;;;;;5028261;28;20402;-81
2024/02/08 01:31:53;;;;;;;6.22;2.78;;;;;;;;;;5032958;28;20101;-81
2024/02/08 01:34:19;;;;;;;;;;;1.70;99.90;;;;;;5033669;28;20026;-81
2024/02/08 01:36:46;;;;;;;14.73;2.75;;;;;;;;;;5033130;28;19905;-80
2024/02/08 01:39:13;;;;;;;14.55;4.38;;;;;;;;;;5032788;28;20102;-80
2024/02/08 01:41:45;;;;;;;12.48;5.15;;;;;;;;;;5032112;28;20026;-81
2024/02/08 01:44:13;;;;;;;15.10;4.75;;;;;;;;;;5033489;28;20061;-81
2024/02/08 01:46:39;;;;;;;17.65;4.93;;;;;;;;;;5032337;28;20022;-80
2024/02/08 01:49:16;;;;;;;16.08;4.60;;;1.80;99.90;;;;;;5032145;28;20030;-80
2024/02/08 01:51:43;;;;;;;12.95;4.65;;;1.80;99.90;;;;;;5034178;28;20109;-81
2024/02/08 01:54:12;;;;;;;11.50;4.70;;;;;;;;;;5034530;28;20026;-81
2024/02/08 01:56:41;;;;;;;13.70;4.55;;;;;;;;;;5034504;28;20053;-81
2024/02/08 01:59:10;;;;;;;14.65;4.88;;;1.80;99.90;;;;;;5035438;28;20014;-80
2024/02/08 02:01:36;;;;;;;8.73;3.70;;;;;;;;;;5035470;28;20022;-81
2024/02/08 02:04:06;;;;;;;11.40;3.20;;;;;;;;;;5034537;28;20049;-80
2024/02/08 02:06:32;;;;;;;6.82;2.88;;;;;;;;;;5035784;28;20494;-80
2024/02/08 02:08:58;;;;;;;10.18;2.42;;;;;;;;;;5034157;28;20393;-80
2024/02/08 02:11:37;;;;;;;11.52;2.65;;;1.90;99.90;;;;;;5034415;28;20026;-80
2024/02/08 02:14:04;;;;;;;;;;;1.90;99.90;;;;;;5034311;28;20147;-80
2024/02/08 02:16:31;;;;;;;8.88;2.33;;;;;;;;;;5033398;28;19889;-80
2024/02/08 02:18:57;;;;;;;10.40;2.33;;;;;;;;;;5036346;28;20036;-80
2024/02/08 02:21:24;;;;;;;8.27;2.92;;;;;;;;;;5035139;28;20057;-80
2024/02/08 02:23:52;;;;;;;10.43;3.35;;;;;;;;;;5034709;28;20030;-81
2024/02/08 02:26:18;;;;;;;9.80;3.05;;;2.00;99.90;;;;;;5035216;28;20109;-81
2024/02/08 02:28:46;;;;;;;7.45;2.92;;;2.00;99.90;;;;;;5033737;28;20087;-80
2024/02/08 02:31:13;;;;;;;13.43;3.95;;;;;;;;;;5033046;28;20026;-79
2024/02/08 02:33:44;;;;;;;14.27;3.67;;;2.00;99.90;;;;;;5033229;28;20024;-80
2024/02/08 02:36:14;;;;;;;11.27;3.45;;;;;;;;;;5034039;28;20025;-80
2024/02/08 02:38:41;;;;;;;11.98;3.92;;;;;;;;;;5035275;28;20018;-80
2024/02/08 02:41:07;;;;;;;10.95;3.95;;;;;;;;;;5034898;28;20018;-80
2024/02/08 02:43:37;;;;;;;12.07;3.25;;;2.10;99.90;;;;;;5033992;28;20041;-80
2024/02/08 02:46:06;;;;;;;11.90;3.38;;;;;;;;;;5034939;28;20021;-81
2024/02/08 02:48:40;;;;;;;10.82;3.58;;;;;;;;;;5034954;28;20114;-81
2024/02/08 02:51:11;;;;;;;7.75;3.22;;;2.10;99.90;;;;;;5034506;28;20486;-80
2024/02/08 02:53:39;;;;;;;10.85;4.25;;;;;;;;;;5034894;28;20006;-80
2024/02/08 02:56:06;;;;;;;16.35;5.07;;;;;;;;;;5033461;28;20673;-81
2024/02/08 02:58:32;;;;;;;11.52;4.70;;;;;;;;;;5032978;28;20030;-81
2024/02/08 03:01:04;;;;;;;9.00;3.72;;;2.10;99.90;;;;;;5031536;28;20045;-81
2024/02/08 03:03:37;;;;;;;11.25;3.50;;;2.10;99.90;;;;;;5031566;28;20026;-81
2024/02/08 03:06:09;;;;;;;11.15;3.67;;;;;;;;;;5031804;28;20029;-81
2024/02/08 03:08:38;;;;;;;18.58;4.18;;;;;;;;;;5032274;28;20022;-80
2024/02/08 03:11:04;;;;;;;10.55;3.53;;;;;;;;;;5031840;28;20077;-80
2024/02/08 03:13:34;;;;;;;9.07;3.58;;;;;;;;;;5033136;28;20034;-81
2024/02/08 03:16:05;;;;;;;9.63;3.03;;;;;;;;;;5034467;28;20022;-81
2024/02/08 03:18:32;;;;;;;10.40;2.72;;;;;;;;;;5034629;28;20040;-81
2024/02/08 03:20:58;;;;;;;7.70;2.33;;;;;;;;;;5034614;28;20030;-81
2024/02/08 03:23:24;;;;;;;13.68;3.28;;;;;;;;;;5036383;28;20053;-81
2024/02/08 03:25:50;;;;;;;10.07;2.67;;;;;;;;;;5037850;28;20006;-80
2024/02/08 03:28:17;;;;;;;6.72;2.38;;;;;;;;;;5037886;28;20006;-82
2024/02/08 03:30:44;;;;;;;8.75;2.40;;;;;;;;;;5038584;28;20073;-80
2024/02/08 03:33:15;;;;;;;8.70;2.22;;;;;;;;;;5037301;28;20026;-81
2024/02/08 03:35:45;;;;;;;9.88;2.30;;;;;;;;;;5038745;28;20002;-82
2024/02/08 03:38:11;;;;;;;8.10;2.47;;;;;;;;;;5038022;28;20034;-81
2024/02/08 03:40:38;;;;;;;8.32;2.60;;;;;;;;;;5037724;28;20041;-80
2024/02/08 03:43:04;;;;;;;6.07;1.77;;;;;;;;;;5038816;28;20026;-82
2024/02/08 03:45:30;;;;;;;9.27;2.55;;;2.20;99.90;;;;;;5039256;28;20090;-82
2024/02/08 03:47:59;;;;;;;7.45;2.35;;;;;;;;;;5039477;28;20018;-82
2024/02/08 03:50:33;;;;;;;5.45;2.25;;;;;;;;;;5038322;28;20037;-81
2024/02/08 03:53:00;;;;;;;7.90;2.50;;;;;;;;;;5037499;28;20021;-81
2024/02/08 03:55:26;;;;;;;6.97;1.85;;;;;;;;;;5038736;28;20053;-80
2024/02/08 03:58:06;;;;;;;6.57;2.00;;;;;;;;;;5037111;28;20026;-81
2024/02/08 04:00:33;;;;;;;4.53;1.77;;;;;;;;;;5038887;28;20018;-81
2024/02/08 04:03:10;;;;;;;8.65;1.83;;;2.30;99.90;;;;;;5038318;28;20057;-81
2024/02/08 04:05:59;;;;;;;4.65;1.85;;;;;;;;;;5037960;28;20026;-82
2024/02/08 05:00:12;;;;;;;9.45;1.92;;;;;;;;;;5550657;22;20050;-80
2024/02/08 05:02:38;;;;;;;12.05;1.88;;;2.10;99.90;;;;;;5001920;28;20064;-80
2024/02/08 05:05:07;;;;;;;11.48;2.22;;;2.10;99.90;;;;;;5001838;28;20391;-80
2024/02/08 05:07:32;;;;;;;13.88;1.60;;;2.10;99.90;;;;;;5002264;28;20035;-80
2024/02/08 05:09:58;;;;;;;8.77;2.13;;;;;;;;;;5003092;28;20038;-80
2024/02/08 05:12:24;;;;;;;13.70;2.83;;;2.10;99.90;;;;;;5004000;28;20026;-81
2024/02/08 05:14:50;;;;;;;9.43;2.03;;;2.20;99.90;;;;;;5003243;28;20394;-80
2024/02/08 05:19:51;;;;;;;17.77;2.08;;;2.20;99.90;;;;;;5782401;22;20054;-80
2024/02/08 05:22:17;;;;;;;12.23;1.75;;;;;;;;;;5004663;28;20375;-80
2024/02/08 05:24:43;;;;;;;11.57;2.33;;;;;;;;;;5005076;28;20054;-80
2024/02/08 05:27:11;;;;;;;11.57;2.33;;;;;;;;;;5005390;28;20031;-80
2024/02/08 05:29:39;;;;;;;7.55;1.80;;;;;;;;;;5005409;28;20023;-80
2024/02/08 05:32:05;;;;;;;8.48;1.63;;;2.20;99.90;;;;;;5007112;28;20036;-79
2024/02/08 05:34:36;;;;;;;10.68;2.35;;;;;;;;;;5004834;28;20602;-79
2024/02/08 05:37:03;;;;;;;16.27;2.35;;;;;;;;;;5005249;28;20390;-80
2024/02/08 05:39:29;;;;;;;6.78;1.48;;;;;;;;;;5005279;28;20026;-80
2024/02/08 05:41:56;;;;;;;8.82;1.92;;;;;;;;;;5006896;28;20034;-80
2024/02/08 05:44:22;;;;;;;10.85;1.63;;;;;;;;;;5004432;28;20026;-80
2024/02/08 05:49:30;;;;;;;18.60;2.25;;;2.40;99.90;;;;;;5301379;23;20405;-80
2024/02/08 05:52:05;;;;;;;12.02;2.00;;;2.40;99.90;;;;;;5025162;28;20067;-80
2024/02/08 05:54:31;;;;;;;13.65;3.00;;;2.40;99.90;;;;;;5025922;28;20026;-80
2024/02/08 05:57:03;;;;;;;10.43;1.80;;;2.40;99.90;;;;;;5042290;28;20020;-81
2024/02/08 05:59:31;;;;;;;12.63;1.65;;;2.40;99.90;;;;;;5026116;28;20026;-81
2024/02/08 06:02:02;;;;;;;9.75;2.08;;;2.40;99.90;;;;;;5026840;28;20037;-81
2024/02/08 06:04:41;;;;;;;12.98;1.83;;;;;;;;;;5024646;28;20118;-80
2024/02/08 06:07:07;;;;;;;8.90;1.23;;;2.50;99.90;;;;;;5245348;22;20038;-82
2024/02/08 06:12:28;;;;;;;8.88;1.60;;;2.50;99.90;;;;;;5011227;28;20031;-79
2024/02/08 06:14:58;;;;;;;6.53;1.67;;;2.40;99.90;;;;;;4996663;28;20117;-78
2024/02/08 06:17:33;;;;;;;11.40;2.10;;;2.50;99.90;;;;;;4997403;28;20069;-78
2024/02/08 06:20:00;;;;;;;9.13;1.95;;;2.50;99.90;;;;;;4998723;28;20080;-78
2024/02/08 06:22:28;;;;;;;11.20;2.08;;;2.50;99.90;;;;;;4999501;28;20065;-78
2024/02/08 06:25:24;;;;;;;13.55;4.53;;;2.50;99.90;;;;;;4999065;28;20026;-79
2024/02/08 06:27:50;;;;;;;9.88;1.80;;;2.50;99.90;;;;;;4999082;28;20414;-79
2024/02/08 06:30:18;;;;;;;8.75;2.72;;;2.50;99.90;;;;;;5000448;28;20057;-79
2024/02/08 06:32:45;;;;;;;12.35;2.28;;;2.60;99.90;;;;;;4998851;28;20536;-78
2024/02/08 06:35:19;;;;;;;16.30;3.17;;;3.00;99.90;;;;;;4998913;28;20183;-78
2024/02/08 06:37:48;;;;;;;7.78;2.05;;;2.50;99.90;;;;;;4999978;28;20018;-78
2024/02/08 06:40:21;;;;;;;12.55;2.92;;;4.60;99.90;;;;;;4999631;28;20054;-78
2024/02/08 06:46:09;;;;;;;15.32;2.65;;;2.50;99.90;;;;;;5000541;28;20652;-78
2024/02/08 07:37:46;;;;;;;10.07;1.00;;;2.70;99.90;;;;;;4998474;28;20038;-79
2024/02/08 07:40:26;;;;;;;6.10;0.45;;;2.70;99.90;;;;;;4998045;28;20030;-78
2024/02/08 07:45:42;;;;;;;6.93;0.73;;;2.70;99.90;;;;;;4998926;28;20102;-79
2024/02/08 07:48:08;;;;;;;6.90;1.33;;;2.70;99.90;;;;;;4998799;28;20537;-79
2024/02/08 07:50:44;;;;;;;8.32;1.15;;;2.70;99.90;;;;;;4998407;28;20117;-79
2024/02/08 07:58:49;;;;;;;7.07;1.23;;;2.90;99.90;;;;;;4996664;28;20030;-78
2024/02/08 08:01:18;;;;;;;7.43;1.38;;;2.80;99.90;;;;;;4999462;28;20086;-78
2024/02/08 08:03:55;;;;;;;5.72;0.47;;;2.80;99.90;;;;;;4997618;28;20026;-78
2024/02/08 08:06:22;;;;;;;10.82;0.77;;;3.00;99.90;;;;;;4996888;28;20023;-78
2024/02/08 08:08:58;;;;;;;6.65;0.45;;;3.10;99.90;;;;;;4996994;28;20022;-78
2024/02/08 08:11:31;;;;;;;6.70;0.98;;;2.90;99.90;;;;;;4997169;28;20471;-78
2024/02/08 08:19:10;;;;;;;12.13;1.17;;;3.10;99.90;;;;;;4999091;28;20038;-78
2024/02/08 08:24:27;;;;;;;6.53;0.90;;;3.20;99.90;;;;;;4998893;28;20123;-78
2024/02/08 08:29:58;;;;;;;11.52;0.70;;;3.30;99.90;;;;;;4963161;28;20089;-78
2024/02/08 08:37:45;;;;;;;9.38;0.90;;;3.40;99.90;;;;;;4998771;28;20054;-78
2024/02/08 08:43:19;;;;;;;10.82;0.85;;;3.40;99.90;;;;;;5008045;28;20321;-78
2024/02/08 08:45:52;;;;;;;7.28;0.73;;;3.60;99.90;;;;;;4997010;28;20026;-78
2024/02/08 08:48:21;;;;;;;4.90;1.02;;;3.60;99.90;;;;;;4998933;28;20391;-78
2024/02/08 08:50:55;;;;;;;7.72;1.02;;;3.60;99.90;;;;;;4995979;28;20030;-78
2024/02/08 08:53:35;;;;;;;9.73;0.90;;;3.60;99.90;;;;;;4996093;28;20372;-78
2024/02/08 08:56:03;;;;;;;7.47;0.50;;;3.70;99.90;;;;;;4997907;28;20061;-78
2024/02/08 08:58:38;;;;;;;9.95;1.38;;;3.60;99.90;;;;;;4996939;28;20088;-78
2024/02/08 09:01:15;;;;;;;8.30;0.80;;;3.70;99.90;;;;;;4995572;28;20018;-78
2024/02/08 09:03:55;;;;;;;8.30;0.60;;;3.70;99.90;;;;;;4997266;28;20025;-78
2024/02/08 09:06:25;;;;;;;4.30;0.90;;;3.80;99.90;;;;;;4996478;28;20485;-78
2024/02/08 09:08:59;;;;;;;10.68;1.05;;;3.70;99.90;;;;;;4998553;28;20022;-78
2024/02/08 09:11:25;;;;;;;8.98;1.45;;;3.80;99.90;;;;;;4997694;28;20394;-78
2024/02/08 09:13:55;;;;;;;6.25;1.58;;;3.80;99.90;;;;;;4998458;28;20354;-78
2024/02/08 09:21:32;;;;;;;6.07;0.57;;;3.90;99.90;;;;;;4997923;28;20026;-78
2024/02/08 09:24:07;;;;;;;8.48;1.35;;;3.90;99.90;;;;;;4997443;28;20026;-79
2024/02/08 09:26:51;;;;;;;14.68;2.45;;;3.90;99.90;;;;;;4996210;28;20022;-79
2024/02/08 09:29:24;;;;;;;8.85;0.85;;;3.90;99.90;;;;;;4996553;28;20390;-78
2024/02/08 09:31:58;;;;;;;5.72;0.68;;;3.90;99.90;;;;;;4996998;28;20066;-78
2024/02/08 09:34:36;;;;;;;7.18;0.73;;;3.90;99.90;;;;;;4996562;28;20105;-78
2024/02/08 09:37:13;;;;;;;10.20;1.20;;;3.90;99.90;;;;;;4996371;28;20379;-78
2024/02/08 09:39:58;;;;;;;9.45;0.75;;;3.90;99.90;;;;;;4995531;28;20022;-78
2024/02/08 09:42:29;;;;;;;6.50;0.88;;;3.90;99.90;;;;;;4995931;28;20086;-79
2024/02/08 09:45:41;;;;;;;9.27;1.48;;;4.40;99.90;;;;;;4996548;28;20037;-78
2024/02/08 09:48:15;;;;;;;9.45;0.80;;;4.00;99.90;;;;;;4996882;28;20078;-78
2024/02/08 09:50:50;;;;;;;8.23;0.93;;;4.00;99.90;;;;;;4996341;28;20041;-78
2024/02/08 09:53:30;;;;;;;6.93;0.52;;;4.00;99.90;;;;;;4998726;28;20449;-78
2024/02/08 09:56:15;;;;;;;7.00;0.70;;;4.00;99.90;;;;;;4999672;28;20038;-78
2024/02/08 09:58:55;;;;;;;11.13;1.38;;;4.00;99.90;;;;;;5001260;28;20026;-78
2024/02/08 10:01:42;;;;;;;8.23;1.13;;;4.10;99.90;;;;;;4998846;28;20023;-78
2024/02/08 10:04:16;;;;;;;6.07;0.75;;;4.10;99.90;;;;;;4998577;28;20034;-78
2024/02/08 10:06:58;;;;;;;4.82;0.68;;;4.20;99.90;;;;;;4997844;28;20032;-78
2024/02/08 10:09:40;;;;;;;7.18;0.60;;;4.30;99.90;;;;;;4997984;28;20057;-78
2024/02/08 10:12:11;;;;;;;10.15;1.35;;;4.30;99.90;;;;;;4999430;28;20046;-78
2024/02/08 10:14:41;;;;;;;10.02;0.90;;;4.20;99.90;;;;;;4997652;28;20394;-78
2024/02/08 10:17:18;;;;;;;9.52;1.15;;;4.30;99.90;;;;;;4998255;28;20113;-78
2024/02/08 10:23:33;;;;;;;14.25;1.02;;;4.40;99.90;;;;;;5000050;28;20502;-78
2024/02/08 10:26:19;;;;;;;14.70;0.90;;;4.40;99.90;;;;;;4999476;28;20518;-79
2024/02/08 10:28:53;;;;;;;10.23;0.70;;;5.00;99.90;;;;;;5001340;28;20027;-78
2024/02/08 10:31:24;;;;;;;11.32;1.35;;;4.40;99.90;;;;;;4999275;28;20014;-78
2024/02/08 10:34:23;;;;;;;9.95;0.90;;;4.40;99.90;;;;;;4998613;28;20050;-78
2024/02/08 10:36:48;;;;;;;10.38;1.35;;;4.50;99.90;;;;;;4997844;28;20014;-78
2024/02/08 10:39:26;;;;;;;14.32;1.58;;;4.90;99.90;;;;;;4998694;28;20077;-78
2024/02/08 10:41:58;;;;;;;7.13;1.10;;;4.60;99.90;;;;;;4997309;28;20053;-78
2024/02/08 10:44:27;;;;;;;8.80;1.02;;;4.60;99.90;;;;;;4998250;28;20026;-78
2024/02/08 10:50:35;;;;;;;14.23;1.52;;;4.70;99.90;;;;;;5018948;28;20065;-82
2024/02/08 11:07:45;;;;;;;9.27;1.30;;;4.80;99.90;;;;;;4899374;29;20145;-82
2024/02/08 11:11:30;;;;;;;14.68;2.25;;;4.80;99.90;;;;;;4926899;29;20043;-81
2024/02/08 11:25:33;;;;;;;7.10;1.02;;;4.60;99.90;;;;;;4865356;29;20103;-82
2024/02/08 11:42:00;;;;;;;13.15;2.45;;;4.60;99.90;;;;;;4917363;29;20077;-82
2024/02/08 11:51:33;;;;;;;8.70;2.20;;;4.70;99.90;;;;;;4961520;28;20054;-83
2024/02/08 11:54:09;;;;;;;9.25;1.45;;;4.70;99.90;;;;;;4981466;28;20090;-82
2024/02/08 11:56:38;;;;;;;13.07;1.92;;;;;;;;;;4990744;28;20027;-82
2024/02/08 11:59:08;;;;;;;14.15;2.53;;;4.60;99.90;;;;;;5005856;28;20039;-82
2024/02/08 12:01:36;;;;;;;13.85;2.67;;;4.60;99.90;;;;;;5009406;28;20019;-82
2024/02/08 12:04:03;;;;;;;10.63;2.65;;;4.60;99.90;;;;;;5016599;28;20032;-81
2024/02/08 12:06:33;;;;;;;10.57;1.90;;;;;;;;;;5009756;28;20034;-82
2024/02/08 12:09:03;;;;;;;15.18;2.70;;;4.60;99.90;;;;;;5008964;28;20018;-82
2024/02/08 12:11:33;;;;;;;16.90;3.13;;;4.60;99.90;;;;;;5009028;28;20026;-83
2024/02/08 12:14:07;;;;;;;13.15;2.38;;;4.60;99.90;;;;;;5009935;28;20031;-84
2024/02/08 12:16:46;;;;;;;16.05;2.90;;;4.60;99.90;;;;;;5013912;28;20038;-83
2024/02/08 12:19:19;;;;;;;9.55;2.60;;;4.60;99.90;;;;;;5017607;28;20011;-80
2024/02/08 12:21:56;;;;;;;8.10;1.60;;;4.60;99.90;;;;;;5017192;28;20018;-79
2024/02/08 12:24:23;;;;;;;14.50;2.83;;;;;;;;;;5018706;28;20080;-80
2024/02/08 12:26:54;;;;;;;12.48;2.05;;;4.60;99.90;;;;;;5017841;28;20013;-80
2024/02/08 12:29:24;;;;;;;7.78;1.92;;;4.50;99.90;;;;;;5019180;28;20050;-79
2024/02/08 12:31:54;;;;;;;15.30;2.53;;;4.50;99.90;;;;;;5019512;28;20003;-80
2024/02/08 12:34:31;;;;;;;11.48;2.97;;;4.40;99.90;;;;;;5018721;28;20015;-79
2024/02/08 12:37:06;;;;;;;19.60;3.38;;;4.40;99.90;;;;;;5019229;28;20079;-79
2024/02/08 12:39:41;;;;;;;13.10;2.70;;;4.30;99.90;;;;;;5019991;28;20033;-78
2024/02/08 12:42:08;;;;;;;15.85;3.70;;;;;;;;;;5019273;28;20030;-79
2024/02/08 12:44:39;;;;;;;13.18;2.10;;;;;;;;;;5019135;28;20018;-80
2024/02/08 12:47:06;;;;;;;12.85;2.30;;;;;;;;;;5019057;28;20022;-78
2024/02/08 12:49:33;;;;;;;16.83;2.20;;;;;;;;;;5019529;28;20049;-78
2024/02/08 12:52:03;;;;;;;15.30;3.65;;;4.20;99.90;;;;;;5019148;28;20010;-81
2024/02/08 12:54:29;;;;;;;13.13;2.50;;;;;;;;;;5019642;28;20054;-78
2024/02/08 12:57:13;;;;;;;12.95;2.80;;;4.20;99.90;;;;;;5019570;28;20026;-78
2024/02/08 12:59:41;;;;;;;17.23;2.72;;;4.20;99.90;;;;;;5019489;28;20025;-81
2024/02/08 13:02:17;;;;;;;5.65;1.63;;;4.20;99.90;;;;;;5019355;28;20046;-79
2024/02/08 13:04:50;;;;;;;9.77;1.90;;;;;;;;;;5019500;28;20007;-81
2024/02/08 13:07:17;;;;;;;17.80;2.28;;;4.20;99.90;;;;;;5019321;28;20022;-80
2024/02/08 13:09:44;;;;;;;9.23;1.65;;;;;;;;;;5018996;28;20023;-79
2024/02/08 13:12:20;;;;;;;10.13;2.15;;;4.10;99.90;;;;;;5019501;28;20011;-80
2024/02/08 13:14:50;;;;;;;9.90;1.00;;;;;;;;;;5018544;28;20042;-80
2024/02/08 13:17:19;;;;;;;7.53;1.40;;;;;;;;;;5018814;28;20018;-79
2024/02/08 13:19:56;;;;;;;5.25;0.98;;;4.00;99.90;;;;;;5019160;28;20030;-80
2024/02/08 13:22:30;;;;;;;11.35;1.80;;;4.00;99.90;;;;;;5018265;28;20035;-79
2024/02/08 13:24:57;;;;;;;6.05;0.80;;;;;;;;;;5018368;28;20046;-78
2024/02/08 13:27:25;;;;;;;8.40;0.98;;;3.90;99.90;;;;;;5023212;28;20007;-78
2024/02/08 13:29:54;;;;;;;10.85;1.58;;;;;;;;;;5022923;28;20022;-80
2024/02/08 13:32:28;;;;;;;7.28;0.80;;;3.90;99.90;;;;;;5022790;28;20014;-81
2024/02/08 13:34:55;;;;;;;8.05;0.80;;;3.90;99.90;;;;;;5022744;28;20014;-78
2024/02/08 13:37:22;;;;;;;10.60;1.80;;;3.90;99.90;;;;;;5022503;28;20062;-79
2024/02/08 13:39:59;;;;;;;6.28;1.15;;;;;;;;;;5022675;28;20014;-78
2024/02/08 13:42:29;;;;;;;4.50;0.90;;;3.90;99.90;;;;;;5021922;28;20014;-80
2024/02/08 13:45:00;;;;;;;2.95;0.73;;;3.80;99.90;;;;;;5022393;28;20031;-77
2024/02/08 13:47:27;;;;;;;3.83;0.80;;;;;;;;;;5022550;28;20003;-79
2024/02/08 13:49:54;;;;;;;9.57;0.82;;;3.80;99.90;;;;;;5022767;28;20023;-81
2024/02/08 13:52:21;;;;;;;5.97;1.23;;;3.70;99.90;;;;;;5022549;28;20038;-79
2024/02/08 13:54:48;;;;;;;6.25;0.90;;;;;;;;;;5022354;28;20011;-80
2024/02/08 13:57:14;;;;;;;2.63;0.38;;;;;;;;;;5021839;28;20011;-79
2024/02/08 13:59:48;;;;;;;3.45;0.35;;;3.70;99.90;;;;;;5022096;28;20029;-78
2024/02/08 14:02:18;;;;;;;4.65;0.35;;;;;;;;;;5022360;28;20023;-81
2024/02/08 14:04:51;;;;;;;7.03;1.60;;;3.70;99.90;;;;;;5022674;28;20042;-80
2024/02/08 14:07:25;;;;;;;8.13;0.85;;;3.70;99.90;;;;;;5022430;28;20045;-81
2024/02/08 14:09:58;;;;;;;3.92;0.50;;;;;;;;;;5022276;28;20049;-80
2024/02/08 14:12:28;;;;;;;2.92;0.50;;;3.70;99.90;;;;;;5021800;28;20014;-79
2024/02/08 14:14:55;;;;;;;4.80;0.40;;;3.60;99.90;;;;;;5022399;28;20070;-78
2024/02/08 14:17:27;;;;;;;3.83;0.82;;;;;;;;;;5022510;28;20086;-80
2024/02/08 14:19:55;;;;;;;4.50;0.73;;;;;;;;;;5022272;28;20026;-80
2024/02/08 14:22:21;;;;;;;5.68;0.47;;;;;;;;;;5021990;28;20002;-79
2024/02/08 14:24:51;;;;;;;8.35;1.08;;;;;;;;;;5022044;28;20010;-80
2024/02/08 14:27:17;;;;;;;2.72;0.73;;;;;;;;;;5022058;28;20002;-79
2024/02/08 14:29:43;;;;;;;4.88;0.63;;;;;;;;;;5021285;28;20042;-78
2024/02/08 14:32:11;;;;;;;7.03;0.47;;;;;;;;;;5021516;28;20042;-80
2024/02/08 14:34:37;;;;;;;3.83;0.40;;;;;;;;;;5020142;28;20018;-80
2024/02/08 14:37:09;;;;;;;1.45;0.30;;;;;;;;;;5016794;28;20051;-81
2024/02/08 14:39:36;;;;;;;9.18;0.22;;;3.40;99.90;;;;;;5017261;28;20014;-81
2024/02/08 14:42:11;;;;;;;2.72;0.20;;;3.30;99.90;;;;;;5017793;28;20029;-81
2024/02/08 14:44:44;;;;;;;3.22;0.20;;;3.30;99.90;;;;;;5020325;28;20034;-81
2024/02/08 14:47:21;;;;;;;3.70;0.20;;;3.30;99.90;;;;;;5020851;28;20006;-81
2024/02/08 14:49:54;;;;;;;2.17;0.15;;;3.30;99.90;;;;;;5020558;28;20042;-81
2024/02/08 14:52:26;;;;;;;1.95;0.28;;;3.20;99.90;;;;;;5020639;28;20025;-81
2024/02/08 14:55:09;;;;;;;2.88;0.50;;;3.20;99.90;;;;;;5017517;28;20007;-80
2024/02/08 14:57:45;;;;;;;1.95;0.30;;;;;;;;;;5020635;28;20034;-81
2024/02/08 15:03:09;;;;;;;;;;;3.20;99.90;;;;;;4999689;28;20010;-80
2024/02/08 15:05:48;;;;;;;3.13;0.15;;;;;;;;;;5021347;28;19917;-80
2024/02/08 15:10:59;;;;;;;4.00;0.13;;;;;;;;;;5021151;28;20030;-80
2024/02/08 15:13:26;;;;;;;5.13;0.63;;;;;;;;;;5021007;28;20041;-81
2024/02/08 15:15:55;;;;;;;1.92;0.50;;;;;;;;;;5021101;28;20086;-80
2024/02/08 15:18:30;;;;;;;0.70;0.20;;;3.20;99.90;;;;;;5020588;28;20014;-80
2024/02/08 15:20:59;;;;;;;2.05;0.30;;;3.10;99.90;;;;;;5020582;28;20019;-78
2024/02/08 15:24:18;;;;;;;2.38;0.52;;;;;;;;;;5020392;28;20013;-81
2024/02/08 15:26:14;;;;;;;3.00;0.50;;;;;;;;;;5015720;28;20015;-78
2024/02/08 15:28:55;;;;;;;4.63;1.08;;;;;;;;;;5021190;28;20019;-80
2024/02/08 15:37:13;;;;;;;4.50;0.38;;;3.10;99.90;;;;;;5008796;28;20046;-79
2024/02/08 15:42:17;;;;;;;1.77;0.52;;;;;;;;;;5001627;28;20034;-79
2024/02/08 15:44:52;;;;;;;5.05;0.70;;;;;;;;;;5000826;28;20018;-79
2024/02/08 15:47:18;;;;;;;3.38;0.20;;;;;;;;;;5000474;28;20011;-79
2024/02/08 15:49:54;;;;;;;3.17;0.60;;;;;;;;;;4998718;28;20038;-79
2024/02/08 15:58:25;;;;;;;2.65;0.25;;;;;;;;;;5003230;28;20066;-78
2024/02/08 16:03:52;;;;;;;3.25;0.70;;;;;;;;;;5007896;28;20048;-79
2024/02/08 16:09:07;;;;;;;4.22;0.25;;;;;;;;;;5000629;28;20017;-79
2024/02/08 16:11:34;;;;;;;3.05;0.32;;;;;;;;;;4999398;28;20026;-79
2024/02/08 16:14:04;;;;;;;2.30;0.28;;;;;;;;;;4998427;28;20018;-80
2024/02/08 16:16:30;;;;;;;1.10;0.30;;;;;;;;;;4998826;28;20032;-79
2024/02/08 16:19:20;;;;;;;0.75;0.10;;;;;;;;;;4999082;28;20113;-79
2024/02/08 16:21:46;;;;;;;1.58;0.22;;;;;;;;;;5000777;28;20042;-79
2024/02/08 16:24:18;;;;;;;1.42;0.30;;;;;;;;;;4998661;28;20105;-79
2024/02/08 16:26:56;;;;;;;0.98;0.68;;;3.00;99.90;;;;;;4998483;28;20022;-79
2024/02/08 16:29:34;;;;;;;4.30;0.82;;;;;;;;;;4998580;28;20026;-79
2024/02/08 16:32:19;;;;;;;0.75;0.10;;;3.10;99.90;;;;;;4999446;28;20029;-79
2024/02/08 16:34:53;;;;;;;2.40;0.40;;;;;;;;;;5000174;28;20069;-79
2024/02/08 16:37:41;;;;;;;1.05;0.20;;;3.00;99.90;;;;;;4997932;28;20077;-79
2024/02/08 16:40:16;;;;;;;1.05;0.10;;;3.00;99.90;;;;;;4999006;28;20414;-79
2024/02/08 16:42:47;;;;;;;0.68;0.10;;;3.00;99.90;;;;;;5000800;28;20049;-79
2024/02/08 16:45:18;;;;;;;0.20;0.10;;;3.00;99.90;;;;;;4999433;28;20026;-79
2024/02/08 16:47:53;;;;;;;0.10;0.00;;;3.00;99.90;;;;;;4998389;28;20046;-79
2024/02/08 16:50:34;;;;;;;1.33;0.30;;;3.10;99.90;;;;;;4999389;28;20033;-79
2024/02/08 16:53:03;;;;;;;1.52;0.20;;;3.10;99.90;;;;;;4998795;28;20030;-79
2024/02/08 16:55:46;;;;;;;0.57;0.13;;;3.00;99.90;;;;;;4997910;28;20022;-79
2024/02/08 16:58:19;;;;;;;0.93;0.20;;;3.00;99.90;;;;;;4997913;28;20022;-80
2024/02/08 17:00:48;;;;;;;0.77;0.32;;;3.00;99.90;;;;;;4997545;28;20041;-79
2024/02/08 17:19:21;;;;;;;0.50;0.20;;;3.00;99.90;;;;;;4998708;28;20086;-80
2024/02/08 17:32:20;;;;;;;0.90;0.22;;;3.00;99.90;;;;;;4999049;28;20026;-79
2024/02/08 18:10:31;;;;;;;1.90;0.77;;;;;;;;;;4921755;29;20047;-81
2024/02/08 22:20:27;;;;;;;9.75;4.68;;;4.90;99.90;;;;;;4880101;29;20093;-84
2024/02/08 22:22:59;;;;;;;9.77;4.85;;;4.90;99.90;;;;;;4905623;28;20039;-83
2024/02/08 22:25:25;;;;;;;11.18;4.47;;;5.00;99.90;;;;;;4967634;28;20069;-82
2024/02/08 22:27:51;;;;;;;12.38;4.93;;;;;;;;;;4985035;28;20034;-82
2024/02/08 22:30:18;;;;;;;10.35;5.20;;;;;;;;;;5024130;28;20101;-84
2024/02/08 22:32:46;;;;;;;10.73;5.18;;;5.10;99.90;;;;;;5024335;28;20516;-83
2024/02/08 22:35:12;;;;;;;11.20;5.90;;;5.20;99.90;;;;;;5023232;28;20018;-84
2024/02/08 22:37:45;;;;;;;12.05;5.22;;;5.20;99.90;;;;;;5023480;28;20061;-82
2024/02/08 22:40:12;;;;;;;14.27;5.90;;;5.20;99.90;;;;;;5024193;28;20022;-84
2024/02/08 22:42:38;;;;;;;10.77;5.78;;;;;;;;;;5022295;28;20030;-82
2024/02/08 22:45:08;;;;;;;12.15;5.72;;;5.30;99.90;;;;;;5023339;28;20543;-83
2024/02/08 22:47:34;;;;;;;12.75;5.88;;;;;;;;;;5023142;28;20018;-84
2024/02/08 22:50:00;;;;;;;14.98;6.32;;;;;;;;;;5023028;28;20045;-84
2024/02/08 22:52:26;;;;;;;14.35;6.50;;;;;;;;;;5022565;28;20597;-84
2024/02/08 22:54:54;;;;;;;15.77;6.90;;;5.50;99.90;;;;;;5020772;28;20081;-83